createdAt,value
2018-07-04T00:03:22.155Z,99.90
2018-07-04T00:07:43.436Z,99.90
2018-07-04T00:12:04.963Z,99.90
2018-07-04T00:16:26.256Z,99.90
2018-07-04T00:20:47.684Z,99.90
2018-07-04T00:25:09.160Z,99.90
2018-07-04T00:29:30.383Z,99.90
2018-07-04T00:33:51.724Z,99.90
2018-07-04T00:38:12.880Z,99.90
2018-07-04T00:42:34.470Z,99.90
2018-07-04T00:46:55.780Z,99.90
2018-07-04T00:51:17.188Z,99.90
2018-07-04T00:55:38.432Z,99.90
2018-07-04T00:59:59.625Z,99.90
2018-07-04T01:04:21.195Z,99.90
2018-07-04T01:08:42.458Z,99.90
2018-07-04T01:13:03.875Z,99.90
2018-07-04T01:17:25.072Z,99.90
2018-07-04T01:21:46.529Z,99.90
2018-07-04T01:26:07.940Z,99.90
2018-07-04T01:30:29.144Z,99.90
2018-07-04T01:34:50.331Z,99.90
2018-07-04T01:39:11.843Z,99.90
2018-07-04T01:43:33.180Z,99.90
2018-07-04T01:47:54.579Z,99.90
2018-07-04T01:52:15.821Z,99.90
2018-07-04T01:56:37.064Z,99.90
2018-07-04T02:00:58.324Z,99.90
2018-07-04T02:05:19.563Z,99.90
2018-07-04T02:09:40.868Z,99.90
2018-07-04T02:14:02.027Z,99.90
2018-07-04T02:18:24.680Z,99.90
2018-07-04T02:22:45.928Z,99.90
2018-07-04T02:27:07.420Z,99.90
2018-07-04T02:31:28.900Z,99.90
2018-07-04T02:35:49.879Z,99.90
2018-07-04T02:40:11.352Z,99.90
2018-07-04T02:44:32.732Z,99.90
2018-07-04T02:48:54.106Z,99.90
2018-07-04T02:53:15.361Z,99.90
2018-07-04T02:57:36.695Z,99.90
2018-07-04T03:01:57.768Z,99.90
2018-07-04T03:06:19.215Z,99.90
2018-07-04T03:10:40.580Z,99.90
2018-07-04T03:15:01.876Z,99.90
2018-07-04T03:19:23.396Z,99.90
2018-07-04T03:23:44.807Z,99.90
2018-07-04T03:28:05.972Z,99.90
2018-07-04T03:32:27.241Z,99.90
2018-07-04T03:36:48.379Z,99.90
2018-07-04T03:41:09.835Z,99.90
2018-07-04T03:45:31.259Z,99.90
2018-07-04T03:49:52.662Z,99.90
2018-07-04T03:54:14.084Z,99.90
2018-07-04T03:58:35.152Z,99.90
2018-07-04T04:02:56.440Z,99.90
2018-07-04T04:07:17.864Z,99.90
2018-07-04T04:11:39.207Z,99.90
2018-07-04T04:16:00.599Z,99.90
2018-07-04T04:20:21.847Z,99.90
2018-07-04T04:24:43.519Z,99.90
2018-07-04T04:29:04.709Z,99.90
2018-07-04T04:33:26.296Z,99.90
2018-07-04T04:37:47.604Z,99.90
2018-07-04T04:42:08.752Z,99.90
2018-07-04T04:46:30.096Z,99.90
2018-07-04T04:50:51.336Z,99.90
2018-07-04T04:55:12.912Z,99.90
2018-07-04T04:59:34.196Z,99.90
2018-07-04T05:03:55.828Z,99.90
2018-07-04T05:08:17.065Z,99.90
2018-07-04T05:12:38.484Z,99.90
2018-07-04T05:16:59.600Z,99.90
2018-07-04T05:21:21.148Z,99.90
2018-07-04T05:25:42.684Z,99.90
2018-07-04T05:30:03.964Z,99.90
2018-07-04T05:34:25.407Z,99.90
2018-07-04T05:38:46.724Z,99.90
2018-07-04T05:43:08.124Z,99.90
2018-07-04T05:47:29.654Z,99.90
2018-07-04T05:51:50.963Z,99.90
2018-07-04T05:56:12.191Z,99.90
2018-07-04T06:00:33.524Z,99.90
2018-07-04T06:04:54.962Z,99.90
2018-07-04T06:13:31.584Z,99.90
2018-07-04T06:17:52.795Z,99.90
2018-07-04T06:22:14.284Z,99.90
2018-07-04T06:26:35.606Z,99.90
2018-07-04T06:30:56.971Z,99.90
2018-07-04T06:35:18.085Z,99.90
2018-07-04T06:39:27.044Z,99.90
2018-07-04T06:47:32.592Z,99.90
2018-07-04T06:51:35.294Z,99.90
2018-07-04T06:55:38.009Z,99.90
2018-07-04T06:59:40.704Z,99.90
2018-07-04T07:03:55.663Z,99.90
2018-07-04T07:08:17.099Z,99.90
2018-07-04T07:12:38.385Z,99.90
2018-07-04T07:16:59.500Z,99.90
2018-07-04T07:21:20.884Z,99.90
2018-07-04T07:25:42.060Z,99.90
2018-07-04T07:30:03.468Z,99.90
2018-07-04T07:34:24.633Z,99.90
2018-07-04T11:39:33.880Z,99.90
2018-07-04T11:43:55.709Z,99.90
2018-07-04T12:12:38.070Z,99.90
2018-07-04T12:16:40.925Z,99.90
2018-07-04T12:20:44.682Z,99.70
2018-07-04T12:41:28.970Z,98.30
2018-07-04T13:10:52.666Z,95.30
2018-07-04T13:19:29.925Z,96.70
2018-07-04T13:36:37.608Z,97.00
2018-07-04T13:45:14.061Z,99.90
2018-07-04T13:53:51.202Z,99.90
2018-07-04T13:58:12.633Z,99.90
2018-07-04T14:32:22.257Z,99.90
2018-07-04T14:49:29.781Z,95.50
2018-07-04T15:02:21.698Z,98.50
2018-07-04T15:15:13.924Z,94.30
2018-07-04T15:23:50.768Z,99.90
2018-07-04T15:32:28.605Z,99.40
2018-07-04T15:36:49.904Z,99.90
2018-07-04T16:19:34.501Z,99.50
2018-07-04T16:23:55.739Z,97.40
2018-07-04T16:28:17.547Z,95.70
2018-07-04T16:41:09.540Z,94.30
2018-07-04T16:45:30.869Z,93.40
2018-07-04T16:54:07.414Z,91.70
2018-07-04T17:02:43.987Z,94.70
2018-07-04T17:15:37.692Z,99.90
2018-07-04T17:19:59.910Z,99.90
2018-07-04T17:28:36.196Z,99.90
2018-07-04T17:37:12.911Z,99.90
2018-07-04T17:54:22.200Z,99.90
2018-07-04T17:58:43.568Z,99.90
2018-07-04T18:11:35.636Z,99.90
2018-07-04T18:15:57.861Z,99.90
2018-07-04T18:20:19.197Z,99.90
2018-07-04T18:28:55.852Z,99.90
2018-07-04T18:50:19.980Z,99.90
2018-07-04T18:58:57.252Z,99.90
2018-07-04T19:24:37.439Z,99.90
2018-07-04T19:41:44.571Z,99.90
2018-07-04T20:03:07.818Z,99.90
2018-07-04T20:20:16.893Z,99.90
2018-07-04T20:24:38.214Z,99.90
2018-07-04T20:41:46.319Z,99.90
2018-07-04T20:54:38.716Z,99.90
2018-07-04T21:11:46.326Z,99.90
2018-07-04T21:28:53.858Z,99.90
2018-07-04T21:33:15.194Z,99.90
2018-07-04T21:46:08.488Z,99.90
2018-07-04T22:03:15.498Z,99.90
2018-07-04T22:20:23.370Z,99.90
2018-07-04T22:33:15.395Z,99.90
2018-07-04T22:50:23.400Z,99.90
2018-07-04T22:54:44.834Z,99.90
2018-07-04T23:20:27.206Z,99.90
2018-07-04T23:29:05.343Z,99.90
2018-07-04T23:50:30.763Z,99.90
2018-07-04T23:54:52.487Z,99.90
